createdAt,value
2022-10-02T00:02:16.721Z,66189.97
2022-10-02T00:07:26.227Z,66227.13
2022-10-02T00:12:32.155Z,66228.03
2022-10-02T00:17:41.644Z,66201.22
2022-10-02T00:22:51.326Z,66190.06
2022-10-02T00:28:09.849Z,66167.94
2022-10-02T00:33:26.396Z,66155.75
2022-10-02T00:38:42.602Z,66155.75
2022-10-02T00:43:57.410Z,66204.47
2022-10-02T00:49:26.306Z,66177.72
2022-10-02T00:55:00.352Z,66192.66
2022-10-02T01:00:09.616Z,66191.16
2022-10-02T01:05:15.612Z,66193.22
2022-10-02T01:10:21.196Z,66210.88
2022-10-02T01:15:31.965Z,66195.88
2022-10-02T01:20:41.846Z,66210.78
2022-10-02T01:25:47.231Z,66196.50
2022-10-02T01:30:55.349Z,66177.19
2022-10-02T01:35:59.473Z,66209.81
2022-10-02T01:41:05.092Z,66218.38
2022-10-02T01:46:29.006Z,66188.47
2022-10-02T01:52:01.958Z,66174.38
2022-10-02T01:57:17.545Z,66174.97
2022-10-02T02:02:31.426Z,66211.88
2022-10-02T02:07:48.143Z,66233.41
2022-10-02T02:13:00.713Z,66224.81
2022-10-02T02:18:12.066Z,66220.53
2022-10-02T02:23:21.007Z,66223.75
2022-10-02T02:28:28.457Z,66218.47
2022-10-02T02:33:38.049Z,66230.28
2022-10-02T02:38:45.692Z,66208.28
2022-10-02T02:43:57.812Z,66231.25
2022-10-02T02:49:06.159Z,66208.28
2022-10-02T02:54:17.006Z,66230.28
2022-10-02T02:59:27.363Z,66220.53
2022-10-02T03:04:31.168Z,66221.69
2022-10-02T03:09:35.663Z,66250.03
2022-10-02T03:15:02.492Z,66241.03
2022-10-02T03:20:11.719Z,66220.63
2022-10-02T03:25:22.654Z,66225.00
2022-10-02T03:30:29.354Z,66200.06
2022-10-02T03:35:34.230Z,66212.66
2022-10-02T03:40:38.101Z,66217.84
2022-10-02T03:45:51.952Z,66207.75
2022-10-02T03:50:56.018Z,66229.09
2022-10-02T03:56:06.711Z,66242.97
2022-10-02T04:01:18.211Z,66211.97
2022-10-02T04:06:27.667Z,66200.34
2022-10-02T04:11:36.305Z,66219.84
2022-10-02T04:16:46.824Z,66263.00
2022-10-02T04:21:56.772Z,66252.09
2022-10-02T04:27:05.294Z,66237.25
2022-10-02T04:32:15.463Z,66243.25
2022-10-02T04:37:39.419Z,66236.69
2022-10-02T04:42:52.723Z,66251.03
2022-10-02T04:48:17.803Z,66239.41
2022-10-02T04:53:51.986Z,66230.19
2022-10-02T04:59:20.910Z,66284.44
2022-10-02T05:04:54.097Z,66273.72
2022-10-02T05:10:03.666Z,66279.72
2022-10-02T05:15:33.724Z,66286.97
2022-10-02T05:20:57.486Z,66261.94
2022-10-02T05:26:27.190Z,66287.06
2022-10-02T05:31:42.355Z,66297.16
2022-10-02T05:37:06.725Z,66256.63
2022-10-02T05:42:20.271Z,66238.31
2022-10-02T05:47:29.412Z,66276.94
2022-10-02T05:52:41.916Z,66284.38
2022-10-02T05:57:49.925Z,66234.03
2022-10-02T06:03:01.506Z,66260.41
2022-10-02T06:08:11.121Z,66267.19
2022-10-02T06:13:24.053Z,66271.50
2022-10-02T06:18:33.335Z,66257.03
2022-10-02T06:23:43.559Z,66259.78
2022-10-02T06:28:53.193Z,66239.22
2022-10-02T06:33:59.804Z,66287.13
2022-10-02T06:39:26.090Z,66259.25
2022-10-02T06:44:40.271Z,66298.47
2022-10-02T06:49:56.776Z,66296.72
2022-10-02T06:55:22.925Z,66289.13
2022-10-02T07:00:27.070Z,66325.03
2022-10-02T07:05:49.732Z,66303.59
2022-10-02T07:11:04.482Z,66350.88
2022-10-02T07:16:27.667Z,66341.69
2022-10-02T07:21:41.188Z,66361.16
2022-10-02T07:26:55.578Z,66333.19
2022-10-02T07:32:42.763Z,66422.91
2022-10-02T07:38:00.040Z,66464.63
2022-10-02T07:43:15.259Z,66398.75
2022-10-02T07:48:43.802Z,66369.22
2022-10-02T07:53:55.226Z,66415.84
2022-10-02T07:59:07.933Z,66408.97
2022-10-02T08:04:15.150Z,66444.91
2022-10-02T08:09:24.627Z,66467.25
2022-10-02T08:14:38.322Z,66472.13
2022-10-02T08:19:49.665Z,66433.03
2022-10-02T08:24:57.420Z,66476.44
2022-10-02T08:30:06.666Z,66485.81
2022-10-02T08:35:14.325Z,66586.69
2022-10-02T08:40:54.580Z,66616.34
2022-10-02T08:46:41.213Z,66581.38
2022-10-02T08:52:07.722Z,66592.06
2022-10-02T08:57:47.690Z,66616.09
2022-10-02T09:03:39.416Z,66616.47
2022-10-02T09:09:16.739Z,66558.66
2022-10-02T09:14:47.251Z,66600.50
2022-10-02T09:20:07.410Z,66580.25
2022-10-02T09:25:37.396Z,66562.06
2022-10-02T09:31:20.441Z,66556.06
2022-10-02T09:36:55.075Z,66571.19
2022-10-02T09:42:36.022Z,66608.81
2022-10-02T09:48:18.956Z,66629.69
2022-10-02T09:54:02.767Z,66685.63
2022-10-02T09:59:32.818Z,66579.31
2022-10-02T10:05:07.376Z,66602.88
2022-10-02T10:10:46.550Z,66630.78
2022-10-02T10:16:21.289Z,66649.06
2022-10-02T10:21:51.731Z,66721.78
2022-10-02T10:27:18.273Z,66646.44
2022-10-02T10:33:09.348Z,66617.41
2022-10-02T10:38:39.825Z,66622.72
2022-10-02T10:44:21.992Z,66674.25
2022-10-02T10:50:02.349Z,66673.72
2022-10-02T10:55:20.245Z,66819.13
2022-10-02T11:00:26.541Z,66823.91
2022-10-02T11:05:58.376Z,66644.84
2022-10-02T11:11:13.545Z,66557.75
2022-10-02T11:16:45.486Z,66584.63
2022-10-02T11:22:14.785Z,66665.19
2022-10-02T11:27:42.141Z,66751.44
2022-10-02T11:33:05.431Z,66787.28
2022-10-02T11:38:23.645Z,66792.34
2022-10-02T11:43:43.906Z,66841.19
2022-10-02T11:49:27.406Z,66786.88
2022-10-02T11:54:56.827Z,66739.06
2022-10-02T12:00:18.473Z,66710.41
2022-10-02T12:05:44.810Z,66707.16
2022-10-02T12:11:00.141Z,66775.03
2022-10-02T12:16:11.352Z,66868.03
2022-10-02T12:22:00.406Z,66919.84
2022-10-02T12:27:15.167Z,66744.38
2022-10-02T12:32:37.639Z,66705.56
2022-10-02T12:37:47.209Z,66929.03
2022-10-02T12:43:27.145Z,66855.34
2022-10-02T12:49:06.976Z,66792.81
2022-10-02T12:54:45.387Z,66783.59
2022-10-02T13:00:01.835Z,66730.38
2022-10-02T13:05:38.029Z,66704.00
2022-10-02T13:10:48.267Z,66844.03
2022-10-02T13:16:03.040Z,66980.91
2022-10-02T13:21:17.313Z,67082.28
2022-10-02T13:26:30.681Z,67069.19
2022-10-02T13:31:49.771Z,66794.97
2022-10-02T13:37:07.726Z,66566.72
2022-10-02T13:42:29.124Z,66585.16
2022-10-02T13:47:41.534Z,66563.66
2022-10-02T13:53:02.343Z,66484.06
2022-10-02T13:58:38.963Z,66481.97
2022-10-02T14:04:19.558Z,66377.63
2022-10-02T14:09:51.350Z,66474.00
2022-10-02T14:15:07.552Z,66551.81
2022-10-02T14:20:38.577Z,66689.97
2022-10-02T14:26:06.931Z,66736.28
2022-10-02T14:31:35.026Z,66780.97
2022-10-02T14:36:48.953Z,66757.22
2022-10-02T14:42:13.587Z,66947.34
2022-10-02T14:47:35.439Z,66801.88
2022-10-02T14:52:57.571Z,66601.81
2022-10-02T14:58:17.716Z,66577.78
2022-10-02T15:03:56.474Z,66660.34
2022-10-02T15:09:07.786Z,66667.34
2022-10-02T15:14:18.304Z,66814.28
2022-10-02T15:19:27.054Z,66876.28
2022-10-02T15:24:41.140Z,66892.97
2022-10-02T15:30:01.217Z,66767.06
2022-10-02T15:35:28.943Z,66746.97
2022-10-02T15:40:42.802Z,66643.69
2022-10-02T15:46:01.080Z,66663.09
2022-10-02T15:51:17.809Z,66707.16
2022-10-02T15:56:40.052Z,66544.84
2022-10-02T16:01:56.415Z,66504.28
2022-10-02T16:07:46.346Z,66506.16
2022-10-02T16:13:08.757Z,66522.63
2022-10-02T16:18:30.140Z,66617.41
2022-10-02T16:24:10.963Z,66613.56
2022-10-02T16:29:32.619Z,66713.09
2022-10-02T16:34:44.242Z,66602.34
2022-10-02T16:40:00.583Z,66435.34
2022-10-02T16:45:31.308Z,66363.84
2022-10-02T16:50:48.742Z,66319.69
2022-10-02T16:55:59.547Z,66422.38
2022-10-02T17:01:18.697Z,66319.31
2022-10-02T17:06:30.324Z,66354.81
2022-10-02T17:11:38.101Z,66300.91
2022-10-02T17:16:53.262Z,66294.66
2022-10-02T17:22:03.571Z,66327.91
2022-10-02T17:27:17.155Z,66352.56
2022-10-02T17:32:39.564Z,66354.19
2022-10-02T17:37:57.437Z,66367.97
2022-10-02T17:43:10.282Z,66314.50
2022-10-02T17:48:28.904Z,66378.78
2022-10-02T17:54:15.566Z,66297.69
2022-10-02T17:59:33.569Z,66255.41
2022-10-02T18:04:50.919Z,66280.00
2022-10-02T18:10:04.574Z,66263.00
2022-10-02T18:15:29.873Z,66323.50
2022-10-02T18:20:37.569Z,66274.25
2022-10-02T18:25:53.030Z,66273.81
2022-10-02T18:31:07.590Z,66297.16
2022-10-02T18:36:26.781Z,66301.16
2022-10-02T18:41:50.300Z,66282.94
2022-10-02T18:47:04.927Z,66286.06
2022-10-02T18:52:38.572Z,66281.06
2022-10-02T18:57:53.092Z,66260.88
2022-10-02T19:03:27.109Z,66270.94
2022-10-02T19:09:12.863Z,66316.28
2022-10-02T19:14:22.933Z,66289.91
2022-10-02T19:19:28.481Z,66314.50
2022-10-02T19:24:38.918Z,66257.63
2022-10-02T19:29:48.673Z,66317.63
2022-10-02T19:35:02.182Z,66253.28
2022-10-02T19:40:16.797Z,66269.34
2022-10-02T19:45:26.801Z,66243.09
2022-10-02T19:50:41.038Z,66301.06
2022-10-02T19:55:50.721Z,66309.66
2022-10-02T20:00:56.321Z,66355.28
2022-10-02T20:06:01.675Z,66320.22
2022-10-02T20:11:12.118Z,66304.84
2022-10-02T20:16:37.860Z,66292.94
2022-10-02T20:21:43.970Z,66278.47
2022-10-02T20:26:51.837Z,66290.34
2022-10-02T20:32:00.168Z,66278.53
2022-10-02T20:37:09.039Z,66309.13
2022-10-02T20:42:20.028Z,66285.53
2022-10-02T20:47:44.554Z,66249.06
2022-10-02T20:53:26.910Z,66246.28
2022-10-02T20:58:53.122Z,66258.63
2022-10-02T21:04:19.335Z,66271.03
2022-10-02T21:10:08.598Z,66274.78
2022-10-02T21:15:58.951Z,66289.28
2022-10-02T21:21:23.012Z,66297.84
2022-10-02T21:27:00.405Z,66310.19
2022-10-02T21:32:51.548Z,66289.81
2022-10-02T21:38:19.144Z,66292.50
2022-10-02T21:44:09.091Z,66271.50
2022-10-02T21:49:45.273Z,66274.25
2022-10-02T21:55:32.683Z,66282.22
2022-10-02T22:00:56.450Z,66254.78
2022-10-02T22:06:26.875Z,66277.56
2022-10-02T22:11:40.782Z,66254.34
2022-10-02T22:16:55.225Z,66275.41
2022-10-02T22:22:13.643Z,66293.56
2022-10-02T22:27:41.502Z,66233.84
2022-10-02T22:33:18.686Z,66253.34
2022-10-02T22:38:27.418Z,66234.47
2022-10-02T22:43:43.141Z,66213.13
2022-10-02T22:48:51.580Z,66198.81
2022-10-02T22:54:03.707Z,66226.97
2022-10-02T22:59:14.371Z,66189.53
2022-10-02T23:04:27.273Z,66209.19
2022-10-02T23:09:40.714Z,66244.69
2022-10-02T23:14:57.321Z,66214.72
2022-10-02T23:20:08.211Z,66242.16
2022-10-02T23:25:20.677Z,66282.31
2022-10-02T23:30:26.340Z,66245.84
2022-10-02T23:35:37.152Z,66241.63
2022-10-02T23:41:17.839Z,66219.00
2022-10-02T23:46:29.968Z,66283.28
2022-10-02T23:51:46.666Z,66252.91
2022-10-02T23:57:07.319Z,66338.63
